createdAt,value
2022-11-27T00:00:50.583Z,6.57
2022-11-27T00:03:18.524Z,6.38
2022-11-27T00:05:55.559Z,6.88
2022-11-27T00:08:23.798Z,6.78
2022-11-27T00:10:53.412Z,7.00
2022-11-27T00:13:21.247Z,7.60
2022-11-27T00:15:49.102Z,7.40
2022-11-27T00:18:17.273Z,6.97
2022-11-27T00:20:45.103Z,6.50
2022-11-27T00:23:12.929Z,6.57
2022-11-27T00:25:40.804Z,6.43
2022-11-27T00:28:09.979Z,5.95
2022-11-27T00:30:37.892Z,6.72
2022-11-27T00:33:05.815Z,5.97
2022-11-27T00:35:33.663Z,6.30
2022-11-27T00:38:01.505Z,5.82
2022-11-27T00:40:29.350Z,6.22
2022-11-27T00:42:57.192Z,6.18
2022-11-27T00:45:26.424Z,6.70
2022-11-27T00:47:54.302Z,7.38
2022-11-27T00:50:22.137Z,6.70
2022-11-27T00:52:50.032Z,6.22
2022-11-27T00:55:17.980Z,7.30
2022-11-27T00:57:45.808Z,6.05
2022-11-27T01:00:15.046Z,5.80
2022-11-27T01:02:44.578Z,6.25
2022-11-27T01:05:12.665Z,5.30
2022-11-27T01:07:40.571Z,5.82
2022-11-27T01:10:09.763Z,5.97
2022-11-27T01:12:37.605Z,5.88
2022-11-27T01:15:06.128Z,5.68
2022-11-27T01:17:33.952Z,5.82
2022-11-27T01:20:03.132Z,5.80
2022-11-27T01:22:31.012Z,5.47
2022-11-27T01:24:58.835Z,5.55
2022-11-27T01:27:26.725Z,6.20
2022-11-27T01:29:54.544Z,5.68
2022-11-27T01:32:22.502Z,6.53
2022-11-27T01:34:50.323Z,5.80
2022-11-27T01:37:19.748Z,5.82
2022-11-27T01:39:47.585Z,6.20
2022-11-27T01:42:15.455Z,5.65
2022-11-27T01:44:52.582Z,4.97
2022-11-27T01:47:39.073Z,5.53
2022-11-27T01:50:16.376Z,6.10
2022-11-27T01:52:50.059Z,6.03
2022-11-27T01:55:24.540Z,6.47
2022-11-27T01:57:56.034Z,6.03
2022-11-27T02:00:24.784Z,5.72
2022-11-27T02:02:52.702Z,5.68
2022-11-27T02:05:22.879Z,5.90
2022-11-27T02:07:53.113Z,6.28
2022-11-27T02:10:21.486Z,6.20
2022-11-27T02:12:57.186Z,5.65
2022-11-27T02:15:32.435Z,5.90
2022-11-27T02:18:10.142Z,5.95
2022-11-27T02:20:46.575Z,5.35
2022-11-27T02:23:42.538Z,5.88
2022-11-27T02:26:29.870Z,5.38
2022-11-27T02:29:05.433Z,5.05
2022-11-27T02:31:41.370Z,6.15
2022-11-27T02:34:19.118Z,6.18
2022-11-27T02:36:54.074Z,5.70
2022-11-27T02:39:26.639Z,6.22
2022-11-27T02:42:00.318Z,5.90
2022-11-27T02:44:33.368Z,6.22
2022-11-27T02:47:02.151Z,6.00
2022-11-27T02:49:30.437Z,5.90
2022-11-27T02:52:02.313Z,5.95
2022-11-27T02:54:31.843Z,5.45
2022-11-27T02:57:04.408Z,5.57
2022-11-27T02:59:35.818Z,5.18
2022-11-27T03:02:08.034Z,5.80
2022-11-27T03:07:10.039Z,5.45
2022-11-27T03:09:41.144Z,5.55
2022-11-27T03:12:10.740Z,5.60
2022-11-27T03:14:42.759Z,5.72
2022-11-27T03:17:22.371Z,5.10
2022-11-27T03:19:56.602Z,5.68
2022-11-27T03:22:26.715Z,6.03
2022-11-27T03:24:54.831Z,5.55
2022-11-27T03:27:28.863Z,5.35
2022-11-27T03:30:00.652Z,5.50
2022-11-27T03:32:30.135Z,5.45
2022-11-27T03:34:58.444Z,5.40
2022-11-27T03:37:26.507Z,5.68
2022-11-27T03:39:54.580Z,5.95
2022-11-27T03:42:29.026Z,5.40
2022-11-27T03:45:08.983Z,5.70
2022-11-27T03:47:46.169Z,5.20
2022-11-27T03:50:22.844Z,5.15
2022-11-27T03:53:01.073Z,5.50
2022-11-27T03:55:35.525Z,5.82
2022-11-27T03:58:07.100Z,5.63
2022-11-27T04:00:40.371Z,5.53
2022-11-27T04:03:11.052Z,5.10
2022-11-27T04:05:39.376Z,4.82
2022-11-27T04:08:07.559Z,4.90
2022-11-27T04:10:35.378Z,5.25
2022-11-27T04:13:03.158Z,5.13
2022-11-27T04:15:30.975Z,5.15
2022-11-27T04:18:00.136Z,5.75
2022-11-27T04:20:29.024Z,5.05
2022-11-27T04:22:56.863Z,4.75
2022-11-27T04:25:24.977Z,5.35
2022-11-27T04:27:53.070Z,5.10
2022-11-27T04:30:21.581Z,5.80
2022-11-27T04:32:49.500Z,5.28
2022-11-27T04:35:18.912Z,5.43
2022-11-27T04:37:46.712Z,5.28
2022-11-27T04:40:15.123Z,5.18
2022-11-27T04:42:42.936Z,5.07
2022-11-27T04:45:11.746Z,5.20
2022-11-27T04:47:39.616Z,5.47
2022-11-27T04:50:08.934Z,5.43
2022-11-27T04:52:38.228Z,5.50
2022-11-27T04:55:06.789Z,5.72
2022-11-27T04:57:34.699Z,5.15
2022-11-27T05:00:04.100Z,5.50
2022-11-27T05:02:32.016Z,5.68
2022-11-27T05:04:59.859Z,5.15
2022-11-27T05:07:27.704Z,5.47
2022-11-27T05:09:56.971Z,6.13
2022-11-27T05:12:24.798Z,6.32
2022-11-27T05:14:52.629Z,6.70
2022-11-27T05:17:20.451Z,6.82
2022-11-27T05:19:48.298Z,6.93
2022-11-27T05:22:16.147Z,6.55
2022-11-27T05:24:43.965Z,6.78
2022-11-27T05:27:13.121Z,6.60
2022-11-27T05:29:40.959Z,6.25
2022-11-27T05:32:08.812Z,6.20
2022-11-27T05:34:36.629Z,6.60
2022-11-27T05:37:04.465Z,6.72
2022-11-27T05:39:32.254Z,6.55
2022-11-27T05:42:00.096Z,6.25
2022-11-27T05:44:29.379Z,6.00
2022-11-27T05:46:57.857Z,5.60
2022-11-27T05:49:25.681Z,5.97
2022-11-27T05:51:53.511Z,6.93
2022-11-27T05:54:21.323Z,5.75
2022-11-27T05:56:49.158Z,5.68
2022-11-27T05:59:17.120Z,6.38
2022-11-27T06:01:46.294Z,6.00
2022-11-27T06:04:14.451Z,5.90
2022-11-27T06:06:42.280Z,6.20
2022-11-27T06:09:13.095Z,6.18
2022-11-27T06:11:42.377Z,6.30
2022-11-27T06:14:10.335Z,6.68
2022-11-27T06:16:38.449Z,6.18
2022-11-27T06:19:08.772Z,6.18
2022-11-27T06:21:36.574Z,6.97
2022-11-27T06:24:04.620Z,6.25
2022-11-27T06:26:33.553Z,6.20
2022-11-27T06:29:02.358Z,7.15
2022-11-27T06:31:32.752Z,6.13
2022-11-27T06:34:01.194Z,6.55
2022-11-27T06:36:32.369Z,7.13
2022-11-27T06:39:00.237Z,6.45
2022-11-27T06:41:29.487Z,7.80
2022-11-27T06:43:59.880Z,6.97
2022-11-27T06:46:28.150Z,7.18
2022-11-27T06:48:56.849Z,7.72
2022-11-27T06:51:26.672Z,6.95
2022-11-27T06:53:56.283Z,7.40
2022-11-27T06:56:26.503Z,7.80
2022-11-27T06:58:55.318Z,7.45
2022-11-27T07:01:24.540Z,6.72
2022-11-27T07:03:52.451Z,6.72
2022-11-27T07:06:23.168Z,6.50
2022-11-27T07:08:51.136Z,6.55
2022-11-27T07:11:21.792Z,7.07
2022-11-27T07:13:51.300Z,6.25
2022-11-27T07:16:19.834Z,6.60
2022-11-27T07:18:49.418Z,6.88
2022-11-27T07:21:17.702Z,6.40
2022-11-27T07:23:46.163Z,7.00
2022-11-27T07:26:15.753Z,6.18
2022-11-27T07:28:45.830Z,6.80
2022-11-27T07:31:15.227Z,6.07
2022-11-27T07:33:43.075Z,6.05
2022-11-27T07:36:14.539Z,5.47
2022-11-27T07:38:42.691Z,6.00
2022-11-27T07:41:10.873Z,5.80
2022-11-27T07:43:39.048Z,6.30
2022-11-27T07:46:09.990Z,5.35
2022-11-27T07:48:38.024Z,5.32
2022-11-27T07:51:07.270Z,6.43
2022-11-27T07:53:37.282Z,5.25
2022-11-27T07:56:05.542Z,5.28
2022-11-27T07:58:33.585Z,5.07
2022-11-27T08:01:01.545Z,4.55
2022-11-27T08:03:30.819Z,4.45
2022-11-27T08:05:58.647Z,4.70
2022-11-27T08:08:26.469Z,5.15
2022-11-27T08:10:54.287Z,4.60
2022-11-27T08:13:22.114Z,4.50
2022-11-27T08:15:49.983Z,4.30
2022-11-27T08:18:17.813Z,4.38
2022-11-27T08:20:46.998Z,4.30
2022-11-27T08:23:14.827Z,4.60
2022-11-27T08:25:42.648Z,4.97
2022-11-27T08:28:10.540Z,4.57
2022-11-27T08:30:38.378Z,4.80
2022-11-27T08:33:06.213Z,4.82
2022-11-27T08:35:34.302Z,4.88
2022-11-27T08:38:03.618Z,5.10
2022-11-27T08:40:31.535Z,5.05
2022-11-27T08:42:59.659Z,5.28
2022-11-27T08:45:27.513Z,4.40
2022-11-27T08:47:55.351Z,5.30
2022-11-27T08:50:23.157Z,5.78
2022-11-27T08:52:51.003Z,5.32
2022-11-27T08:55:20.170Z,4.43
2022-11-27T08:57:47.972Z,5.22
2022-11-27T09:00:16.706Z,4.65
2022-11-27T09:02:44.503Z,4.70
2022-11-27T09:05:12.520Z,3.85
2022-11-27T09:07:40.894Z,4.03
2022-11-27T09:10:09.695Z,4.22
2022-11-27T09:12:43.199Z,4.13
2022-11-27T09:15:12.204Z,3.92
2022-11-27T09:17:40.175Z,4.10
2022-11-27T09:20:09.368Z,4.28
2022-11-27T09:22:37.590Z,4.15
2022-11-27T09:25:05.825Z,4.10
2022-11-27T09:27:33.610Z,4.22
2022-11-27T09:30:02.764Z,4.38
2022-11-27T09:32:30.525Z,4.65
2022-11-27T09:34:58.450Z,4.50
2022-11-27T09:37:26.306Z,4.57
2022-11-27T09:39:55.116Z,4.10
2022-11-27T09:42:38.086Z,4.32
2022-11-27T09:45:12.161Z,4.20
2022-11-27T09:47:43.898Z,4.35
2022-11-27T09:50:15.535Z,4.78
2022-11-27T09:52:47.237Z,4.75
2022-11-27T09:55:19.134Z,4.70
2022-11-27T09:57:54.467Z,4.82
2022-11-27T10:00:24.281Z,4.50
2022-11-27T10:02:52.633Z,4.15
2022-11-27T10:05:23.098Z,4.20
2022-11-27T10:08:26.208Z,4.28
2022-11-27T10:13:46.047Z,4.13
2022-11-27T10:16:22.291Z,3.80
2022-11-27T10:18:54.763Z,4.07
2022-11-27T10:21:43.255Z,4.13
2022-11-27T10:24:19.752Z,3.75
2022-11-27T10:26:49.255Z,3.92
2022-11-27T10:29:31.608Z,3.67
2022-11-27T10:32:05.910Z,4.60
2022-11-27T10:34:41.400Z,4.07
2022-11-27T10:37:16.682Z,4.25
2022-11-27T10:39:49.370Z,4.15
2022-11-27T10:42:23.632Z,3.90
2022-11-27T10:44:56.161Z,3.80
2022-11-27T10:47:32.268Z,3.88
2022-11-27T10:50:01.452Z,3.88
2022-11-27T10:52:29.338Z,3.80
2022-11-27T10:55:00.343Z,4.50
2022-11-27T10:57:41.165Z,3.97
2022-11-27T11:00:15.132Z,4.53
2022-11-27T11:02:44.357Z,4.35
2022-11-27T11:05:37.228Z,4.65
2022-11-27T11:08:05.626Z,4.57
2022-11-27T11:10:39.189Z,4.40
2022-11-27T11:13:15.749Z,4.07
2022-11-27T11:15:51.955Z,4.57
2022-11-27T11:18:22.430Z,4.15
2022-11-27T11:20:52.863Z,4.15
2022-11-27T11:23:24.493Z,4.18
2022-11-27T11:25:55.579Z,4.90
2022-11-27T11:28:24.949Z,4.88
2022-11-27T11:31:00.696Z,4.18
2022-11-27T11:33:30.440Z,4.10
2022-11-27T11:36:07.796Z,4.00
2022-11-27T11:38:35.896Z,4.20
2022-11-27T11:41:06.224Z,4.68
2022-11-27T11:43:36.377Z,4.43
2022-11-27T11:46:08.555Z,4.47
2022-11-27T11:51:13.692Z,4.93
2022-11-27T11:53:42.863Z,5.00
2022-11-27T11:56:27.592Z,5.57
2022-11-27T11:58:59.696Z,5.00
2022-11-27T12:01:44.545Z,5.22
2022-11-27T12:04:27.325Z,5.47
2022-11-27T12:07:04.381Z,5.05
2022-11-27T12:09:45.097Z,6.55
2022-11-27T12:12:26.894Z,5.32
2022-11-27T12:15:01.747Z,4.53
2022-11-27T12:17:41.552Z,5.75
2022-11-27T12:20:18.233Z,5.82
2022-11-27T12:23:34.179Z,5.57
2022-11-27T12:26:10.051Z,5.53
2022-11-27T12:29:09.255Z,5.97
2022-11-27T12:31:52.077Z,5.30
2022-11-27T12:34:31.011Z,5.50
2022-11-27T12:37:14.763Z,6.28
2022-11-27T12:39:57.947Z,6.82
2022-11-27T12:42:31.477Z,6.65
2022-11-27T12:45:04.812Z,7.22
2022-11-27T12:47:40.432Z,6.50
2022-11-27T12:50:15.293Z,8.65
2022-11-27T12:52:47.030Z,8.43
2022-11-27T12:55:19.541Z,8.90
2022-11-27T12:57:50.370Z,7.63
2022-11-27T13:00:20.132Z,8.27
2022-11-27T13:03:01.522Z,7.47
2022-11-27T13:05:33.867Z,6.50
2022-11-27T13:10:37.314Z,8.75
2022-11-27T13:13:09.586Z,9.10
2022-11-27T13:18:18.123Z,9.30
2022-11-27T13:20:52.309Z,9.05
2022-11-27T13:23:22.462Z,9.80
2022-11-27T13:25:54.351Z,8.70
2022-11-27T13:28:27.428Z,9.38
2022-11-27T13:30:58.435Z,9.85
2022-11-27T13:33:37.928Z,9.32
2022-11-27T13:36:08.957Z,9.80
2022-11-27T13:38:41.881Z,10.00
2022-11-27T13:41:20.428Z,9.38
2022-11-27T13:43:50.287Z,10.50
2022-11-27T13:46:24.602Z,10.48
2022-11-27T13:48:55.999Z,10.65
2022-11-27T13:51:27.240Z,10.87
2022-11-27T13:54:08.517Z,9.70
2022-11-27T13:56:36.523Z,10.23
2022-11-27T13:59:15.463Z,9.40
2022-11-27T14:01:57.965Z,10.02
2022-11-27T14:04:26.023Z,10.13
2022-11-27T14:06:56.997Z,8.80
2022-11-27T14:09:36.925Z,8.05
2022-11-27T14:12:19.965Z,8.57
2022-11-27T14:15:01.354Z,9.27
2022-11-27T14:17:36.157Z,9.60
2022-11-27T14:20:09.631Z,9.55
2022-11-27T14:23:10.091Z,9.48
2022-11-27T14:25:36.388Z,9.93
2022-11-27T14:28:12.711Z,9.25
2022-11-27T14:30:42.898Z,8.55
2022-11-27T14:33:19.104Z,9.10
2022-11-27T14:35:50.534Z,9.05
2022-11-27T14:38:18.512Z,9.00
2022-11-27T14:40:48.053Z,8.68
2022-11-27T14:43:23.741Z,8.75
2022-11-27T14:45:53.935Z,9.15
2022-11-27T14:48:24.141Z,8.65
2022-11-27T14:50:53.923Z,9.90
2022-11-27T14:53:24.645Z,10.00
2022-11-27T14:55:57.288Z,9.90
2022-11-27T14:58:27.823Z,10.27
2022-11-27T15:00:58.902Z,9.85
2022-11-27T15:03:27.628Z,9.93
2022-11-27T15:05:59.169Z,9.77
2022-11-27T15:08:28.036Z,9.35
2022-11-27T15:10:58.566Z,9.52
2022-11-27T15:13:28.711Z,9.90
2022-11-27T15:16:04.773Z,9.13
2022-11-27T15:18:35.939Z,9.48
2022-11-27T15:21:09.600Z,9.52
2022-11-27T15:23:38.335Z,9.93
2022-11-27T15:26:16.030Z,9.20
2022-11-27T15:28:52.961Z,9.30
2022-11-27T15:31:27.189Z,8.80
2022-11-27T15:34:01.033Z,8.63
2022-11-27T15:36:38.047Z,8.88
2022-11-27T15:39:19.633Z,8.60
2022-11-27T15:41:57.287Z,8.10
2022-11-27T15:44:26.524Z,8.13
2022-11-27T15:46:56.363Z,8.32
2022-11-27T15:49:24.220Z,8.32
2022-11-27T15:51:52.270Z,8.15
2022-11-27T15:54:20.391Z,9.00
2022-11-27T15:56:48.247Z,8.82
2022-11-27T15:59:20.392Z,8.95
2022-11-27T16:01:49.281Z,9.25
2022-11-27T16:04:17.450Z,10.02
2022-11-27T16:06:45.254Z,8.88
2022-11-27T16:09:13.331Z,8.88
2022-11-27T16:11:41.203Z,9.35
2022-11-27T16:14:09.010Z,9.30
2022-11-27T16:16:38.351Z,9.23
2022-11-27T16:19:06.454Z,8.32
2022-11-27T16:21:36.774Z,9.70
2022-11-27T16:24:06.736Z,9.73
2022-11-27T16:26:35.918Z,8.60
2022-11-27T16:29:03.801Z,8.70
2022-11-27T16:31:31.655Z,9.88
2022-11-27T16:34:01.881Z,8.88
2022-11-27T16:36:29.894Z,9.05
2022-11-27T16:38:57.749Z,8.93
2022-11-27T16:41:26.379Z,8.88
2022-11-27T16:43:56.546Z,8.70
2022-11-27T16:46:26.963Z,9.43
2022-11-27T16:48:56.682Z,8.50
2022-11-27T16:51:28.334Z,8.07
2022-11-27T16:53:58.021Z,7.75
2022-11-27T16:56:27.731Z,7.57
2022-11-27T16:59:02.349Z,7.95
2022-11-27T17:01:34.274Z,7.47
2022-11-27T17:04:03.551Z,7.40
2022-11-27T17:06:34.115Z,7.95
2022-11-27T17:09:03.511Z,6.78
2022-11-27T17:11:33.833Z,7.38
2022-11-27T17:14:03.636Z,7.13
2022-11-27T17:16:31.617Z,7.25
2022-11-27T17:18:59.439Z,7.05
2022-11-27T17:21:29.158Z,7.03
2022-11-27T17:24:00.136Z,7.28
2022-11-27T17:26:30.019Z,7.43
2022-11-27T17:28:59.427Z,7.47
2022-11-27T17:31:32.502Z,7.07
2022-11-27T17:34:00.643Z,7.35
2022-11-27T17:36:35.198Z,7.72
2022-11-27T17:39:06.966Z,8.35
2022-11-27T17:41:35.296Z,8.90
2022-11-27T17:44:05.486Z,8.32
2022-11-27T17:46:34.575Z,7.82
2022-11-27T17:49:03.836Z,7.82
2022-11-27T17:51:33.685Z,8.82
2022-11-27T17:54:02.867Z,8.70
2022-11-27T17:56:32.421Z,8.25
2022-11-27T17:59:00.708Z,8.40
2022-11-27T18:01:29.956Z,8.57
2022-11-27T18:04:01.206Z,8.25
2022-11-27T18:06:29.344Z,8.87
2022-11-27T18:08:58.084Z,8.57
2022-11-27T18:11:28.701Z,8.07
2022-11-27T18:13:58.433Z,8.05
2022-11-27T18:16:29.255Z,7.82
2022-11-27T18:18:57.562Z,8.13
2022-11-27T18:21:27.061Z,8.27
2022-11-27T18:29:33.146Z,7.82
2022-11-27T18:32:01.080Z,8.45
2022-11-27T18:34:28.975Z,8.50
2022-11-27T18:36:59.372Z,9.23
2022-11-27T18:39:27.593Z,9.18
2022-11-27T18:41:55.479Z,7.38
2022-11-27T18:44:23.287Z,8.13
2022-11-27T18:46:52.487Z,7.63
2022-11-27T18:49:22.712Z,7.35
2022-11-27T18:51:51.122Z,8.18
2022-11-27T18:54:18.955Z,7.53
2022-11-27T18:56:46.797Z,7.05
2022-11-27T18:59:14.909Z,7.45
2022-11-27T19:01:43.014Z,7.88
2022-11-27T19:04:12.572Z,7.70
2022-11-27T19:06:42.043Z,7.05
2022-11-27T19:09:10.923Z,8.45
2022-11-27T19:11:38.836Z,8.27
2022-11-27T19:14:07.464Z,7.70
2022-11-27T19:16:41.895Z,7.57
2022-11-27T19:19:30.025Z,7.88
2022-11-27T19:21:59.180Z,7.97
2022-11-27T19:24:27.003Z,7.70
2022-11-27T19:26:54.924Z,7.88
2022-11-27T19:29:22.779Z,8.30
2022-11-27T19:31:51.122Z,8.18
2022-11-27T19:34:19.257Z,8.07
2022-11-27T19:36:47.173Z,7.60
2022-11-27T19:39:16.516Z,7.90
2022-11-27T19:41:44.668Z,7.78
2022-11-27T19:44:14.032Z,8.10
2022-11-27T19:46:42.195Z,8.48
2022-11-27T19:49:14.181Z,7.40
2022-11-27T19:51:42.435Z,6.80
2022-11-27T19:54:13.018Z,7.25
2022-11-27T19:56:42.794Z,7.40
2022-11-27T19:59:12.133Z,7.00
2022-11-27T20:01:40.316Z,7.82
2022-11-27T20:04:10.251Z,6.82
2022-11-27T20:06:38.077Z,6.30
2022-11-27T20:09:06.939Z,6.80
2022-11-27T20:11:36.304Z,7.82
2022-11-27T20:14:06.107Z,6.80
2022-11-27T20:16:35.073Z,6.78
2022-11-27T20:19:05.273Z,7.25
2022-11-27T20:21:33.290Z,7.10
2022-11-27T20:24:02.548Z,7.30
2022-11-27T20:26:30.912Z,7.82
2022-11-27T20:28:59.396Z,7.60
2022-11-27T20:31:30.911Z,7.68
2022-11-27T20:34:01.565Z,7.55
2022-11-27T20:36:30.362Z,7.13
2022-11-27T20:38:59.540Z,7.07
2022-11-27T20:41:27.912Z,8.38
2022-11-27T20:43:57.274Z,7.72
2022-11-27T20:46:25.425Z,8.80
2022-11-27T20:48:55.340Z,7.97
2022-11-27T20:51:27.434Z,7.90
2022-11-27T20:53:57.321Z,8.30
2022-11-27T20:56:26.586Z,8.55
2022-11-27T20:58:54.731Z,7.65
2022-11-27T21:01:24.641Z,8.30
2022-11-27T21:03:55.022Z,8.70
2022-11-27T21:06:25.262Z,8.48
2022-11-27T21:08:53.296Z,8.82
2022-11-27T21:11:24.983Z,9.38
2022-11-27T21:13:55.843Z,9.00
2022-11-27T21:16:24.690Z,9.38
2022-11-27T21:18:54.916Z,9.35
2022-11-27T21:21:23.023Z,9.23
2022-11-27T21:23:51.007Z,8.20
2022-11-27T21:26:19.557Z,8.95
2022-11-27T21:28:48.215Z,8.77
2022-11-27T21:31:18.560Z,9.25
2022-11-27T21:33:47.817Z,9.45
2022-11-27T21:36:17.414Z,9.95
2022-11-27T21:38:45.429Z,10.02
2022-11-27T21:41:13.971Z,9.05
2022-11-27T21:43:42.192Z,9.00
2022-11-27T21:46:12.686Z,9.60
2022-11-27T21:48:40.832Z,10.05
2022-11-27T21:51:12.535Z,9.25
2022-11-27T21:53:42.654Z,9.25
2022-11-27T21:56:12.519Z,9.45
2022-11-27T21:58:40.534Z,9.48
2022-11-27T22:01:12.552Z,8.85
2022-11-27T22:03:42.773Z,9.27
2022-11-27T22:06:13.500Z,10.13
2022-11-27T22:08:43.957Z,9.63
2022-11-27T22:11:13.366Z,8.88
2022-11-27T22:13:42.092Z,9.98
2022-11-27T22:16:11.254Z,10.43
2022-11-27T22:18:39.164Z,9.05
2022-11-27T22:21:08.619Z,10.02
2022-11-27T22:23:36.600Z,8.70
2022-11-27T22:26:08.056Z,9.32
2022-11-27T22:28:36.604Z,7.07
2022-11-27T22:31:09.083Z,9.05
2022-11-27T22:33:37.355Z,10.00
2022-11-27T22:36:16.620Z,8.57
2022-11-27T22:38:44.956Z,8.85
2022-11-27T22:41:15.565Z,8.82
2022-11-27T22:43:44.582Z,9.02
2022-11-27T22:46:15.493Z,9.63
2022-11-27T22:48:43.652Z,9.02
2022-11-27T22:51:11.648Z,9.43
2022-11-27T22:53:39.694Z,8.90
2022-11-27T22:56:09.612Z,9.63
2022-11-27T22:58:41.668Z,9.75
2022-11-27T23:01:15.141Z,8.63
2022-11-27T23:03:43.306Z,8.93
2022-11-27T23:06:12.792Z,8.60
2022-11-27T23:08:40.954Z,9.38
2022-11-27T23:11:09.184Z,8.85
2022-11-27T23:13:38.358Z,9.48
2022-11-27T23:16:08.072Z,8.98
2022-11-27T23:18:38.290Z,9.50
2022-11-27T23:21:06.688Z,9.13
2022-11-27T23:23:34.610Z,10.40
2022-11-27T23:26:04.839Z,9.30
2022-11-27T23:28:32.910Z,10.05
2022-11-27T23:31:28.475Z,8.77
2022-11-27T23:33:56.440Z,8.93
2022-11-27T23:36:24.564Z,8.90
2022-11-27T23:38:52.372Z,8.38
2022-11-27T23:41:21.662Z,9.00
2022-11-27T23:43:50.091Z,9.05
2022-11-27T23:46:21.999Z,8.30
2022-11-27T23:48:49.889Z,8.93
2022-11-27T23:51:19.969Z,8.95
2022-11-27T23:53:50.229Z,9.63
2022-11-27T23:56:20.190Z,9.73
2022-11-27T23:58:48.015Z,9.25
